Air Navigation Services of Czech Republic
Airport: LKPR Updated:  20.04.2024 22:06:39  UTC
 METAR LKPR 20.04. 22:00 ...
METAR LKPR 202200Z 22004KT CAVOK 00/M02 Q1018 NOSIG=
 TAF LKPR 20.04. 20:00 ...
TAF LKPR 202000Z 2021/2203 32004KT CAVOK      BECMG 2106/2108 02010KT 9999 SCT030      TEMPO 2109/2116 -SHRA BKN025      PROB30 TEMPO 2111/2115 BKN020TCU=